sensor_id;sensor_type;location;lat;lon;timestamp;P1;durP1;ratioP1;P2;durP2;ratioP2
4821;SDS011;2425;47.794;13.068;2024-01-30T00:01:48;3.07;;;2.87;;
4821;SDS011;2425;47.794;13.068;2024-01-30T00:04:14;3.00;;;2.80;;
4821;SDS011;2425;47.794;13.068;2024-01-30T00:06:41;2.90;;;2.70;;
4821;SDS011;2425;47.794;13.068;2024-01-30T00:09:09;8.70;;;2.90;;
4821;SDS011;2425;47.794;13.068;2024-01-30T00:11:36;3.20;;;2.90;;
4821;SDS011;2425;47.794;13.068;2024-01-30T00:14:03;3.00;;;2.80;;
4821;SDS011;2425;47.794;13.068;2024-01-30T00:16:30;3.23;;;2.90;;
4821;SDS011;2425;47.794;13.068;2024-01-30T00:18:57;3.00;;;2.80;;
4821;SDS011;2425;47.794;13.068;2024-01-30T00:21:24;2.87;;;2.60;;
4821;SDS011;2425;47.794;13.068;2024-01-30T00:23:51;3.33;;;2.90;;
4821;SDS011;2425;47.794;13.068;2024-01-30T00:26:19;3.40;;;3.10;;
4821;SDS011;2425;47.794;13.068;2024-01-30T00:28:46;3.40;;;2.70;;
4821;SDS011;2425;47.794;13.068;2024-01-30T00:31:13;2.80;;;2.60;;
4821;SDS011;2425;47.794;13.068;2024-01-30T00:33:40;4.43;;;2.50;;
4821;SDS011;2425;47.794;13.068;2024-01-30T00:36:07;2.87;;;2.67;;
4821;SDS011;2425;47.794;13.068;2024-01-30T00:38:34;3.00;;;2.80;;
4821;SDS011;2425;47.794;13.068;2024-01-30T00:41:01;5.37;;;2.37;;
4821;SDS011;2425;47.794;13.068;2024-01-30T00:43:30;3.10;;;2.80;;
4821;SDS011;2425;47.794;13.068;2024-01-30T00:45:57;3.40;;;3.10;;
4821;SDS011;2425;47.794;13.068;2024-01-30T00:48:24;4.80;;;2.60;;
4821;SDS011;2425;47.794;13.068;2024-01-30T00:50:50;10.10;;;2.80;;
4821;SDS011;2425;47.794;13.068;2024-01-30T00:53:17;2.67;;;2.53;;
4821;SDS011;2425;47.794;13.068;2024-01-30T00:55:44;3.03;;;2.83;;
4821;SDS011;2425;47.794;13.068;2024-01-30T00:58:11;2.90;;;2.70;;
4821;SDS011;2425;47.794;13.068;2024-01-30T01:00:39;9.60;;;3.20;;
4821;SDS011;2425;47.794;13.068;2024-01-30T01:03:06;2.60;;;2.50;;
4821;SDS011;2425;47.794;13.068;2024-01-30T01:05:33;2.90;;;2.70;;
4821;SDS011;2425;47.794;13.068;2024-01-30T01:07:59;3.00;;;2.80;;
4821;SDS011;2425;47.794;13.068;2024-01-30T01:10:26;2.73;;;2.50;;
4821;SDS011;2425;47.794;13.068;2024-01-30T01:12:53;3.57;;;2.77;;
4821;SDS011;2425;47.794;13.068;2024-01-30T01:15:20;2.70;;;2.50;;
4821;SDS011;2425;47.794;13.068;2024-01-30T01:17:48;9.43;;;2.90;;
4821;SDS011;2425;47.794;13.068;2024-01-30T01:20:15;2.73;;;2.47;;
4821;SDS011;2425;47.794;13.068;2024-01-30T01:22:41;2.70;;;2.60;;
4821;SDS011;2425;47.794;13.068;2024-01-30T01:25:08;3.03;;;2.80;;
4821;SDS011;2425;47.794;13.068;2024-01-30T01:27:35;2.90;;;2.60;;
4821;SDS011;2425;47.794;13.068;2024-01-30T01:30:06;2.20;;;2.10;;
4821;SDS011;2425;47.794;13.068;2024-01-30T01:32:35;2.60;;;2.40;;
4821;SDS011;2425;47.794;13.068;2024-01-30T01:35:05;2.77;;;2.57;;
4821;SDS011;2425;47.794;13.068;2024-01-30T01:37:31;2.90;;;2.70;;
4821;SDS011;2425;47.794;13.068;2024-01-30T01:39:58;3.07;;;2.87;;
4821;SDS011;2425;47.794;13.068;2024-01-30T01:42:26;3.10;;;2.90;;
4821;SDS011;2425;47.794;13.068;2024-01-30T01:44:53;2.90;;;2.73;;
4821;SDS011;2425;47.794;13.068;2024-01-30T01:47:19;3.00;;;2.80;;
4821;SDS011;2425;47.794;13.068;2024-01-30T01:49:46;2.57;;;2.37;;
4821;SDS011;2425;47.794;13.068;2024-01-30T01:52:15;2.70;;;2.50;;
4821;SDS011;2425;47.794;13.068;2024-01-30T01:54:41;3.03;;;2.83;;
4821;SDS011;2425;47.794;13.068;2024-01-30T01:57:08;2.63;;;2.43;;
4821;SDS011;2425;47.794;13.068;2024-01-30T01:59:35;2.30;;;2.20;;
4821;SDS011;2425;47.794;13.068;2024-01-30T02:02:02;4.63;;;2.80;;
4821;SDS011;2425;47.794;13.068;2024-01-30T02:04:30;3.00;;;2.70;;
4821;SDS011;2425;47.794;13.068;2024-01-30T02:06:56;2.67;;;2.50;;
4821;SDS011;2425;47.794;13.068;2024-01-30T02:09:24;3.30;;;3.10;;
4821;SDS011;2425;47.794;13.068;2024-01-30T02:11:51;2.90;;;2.70;;
4821;SDS011;2425;47.794;13.068;2024-01-30T02:14:18;2.80;;;2.60;;
4821;SDS011;2425;47.794;13.068;2024-01-30T02:16:45;2.87;;;2.67;;
4821;SDS011;2425;47.794;13.068;2024-01-30T02:19:11;2.80;;;2.60;;
4821;SDS011;2425;47.794;13.068;2024-01-30T02:21:39;2.50;;;2.40;;
4821;SDS011;2425;47.794;13.068;2024-01-30T02:24:06;2.50;;;2.40;;
4821;SDS011;2425;47.794;13.068;2024-01-30T02:26:33;3.30;;;2.57;;
4821;SDS011;2425;47.794;13.068;2024-01-30T02:29:00;2.77;;;2.63;;
4821;SDS011;2425;47.794;13.068;2024-01-30T02:31:26;2.83;;;2.63;;
4821;SDS011;2425;47.794;13.068;2024-01-30T02:33:53;2.40;;;2.30;;
4821;SDS011;2425;47.794;13.068;2024-01-30T02:36:20;2.43;;;2.33;;
4821;SDS011;2425;47.794;13.068;2024-01-30T02:38:48;4.20;;;3.00;;
4821;SDS011;2425;47.794;13.068;2024-01-30T02:41:15;2.93;;;2.73;;
4821;SDS011;2425;47.794;13.068;2024-01-30T02:43:41;2.83;;;2.63;;
4821;SDS011;2425;47.794;13.068;2024-01-30T02:46:08;2.70;;;2.50;;
4821;SDS011;2425;47.794;13.068;2024-01-30T02:48:35;2.90;;;2.70;;
4821;SDS011;2425;47.794;13.068;2024-01-30T02:51:03;3.00;;;2.80;;
4821;SDS011;2425;47.794;13.068;2024-01-30T02:53:30;2.53;;;2.33;;
4821;SDS011;2425;47.794;13.068;2024-01-30T02:55:58;2.60;;;2.40;;
4821;SDS011;2425;47.794;13.068;2024-01-30T02:58:25;2.50;;;2.40;;
4821;SDS011;2425;47.794;13.068;2024-01-30T03:00:52;2.57;;;2.37;;
4821;SDS011;2425;47.794;13.068;2024-01-30T03:03:18;2.50;;;2.30;;
4821;SDS011;2425;47.794;13.068;2024-01-30T03:05:45;4.30;;;2.50;;
4821;SDS011;2425;47.794;13.068;2024-01-30T03:08:12;3.27;;;2.70;;
4821;SDS011;2425;47.794;13.068;2024-01-30T03:10:39;2.90;;;2.70;;
4821;SDS011;2425;47.794;13.068;2024-01-30T03:13:08;3.13;;;2.93;;
4821;SDS011;2425;47.794;13.068;2024-01-30T03:15:34;2.40;;;2.30;;
4821;SDS011;2425;47.794;13.068;2024-01-30T03:18:02;2.23;;;2.13;;
4821;SDS011;2425;47.794;13.068;2024-01-30T03:20:29;2.50;;;2.40;;
4821;SDS011;2425;47.794;13.068;2024-01-30T03:22:56;2.80;;;2.60;;
4821;SDS011;2425;47.794;13.068;2024-01-30T03:25:23;2.90;;;2.70;;
4821;SDS011;2425;47.794;13.068;2024-01-30T03:27:50;2.63;;;2.43;;
4821;SDS011;2425;47.794;13.068;2024-01-30T03:30:18;2.37;;;2.17;;
4821;SDS011;2425;47.794;13.068;2024-01-30T03:32:45;2.30;;;2.20;;
4821;SDS011;2425;47.794;13.068;2024-01-30T03:35:12;2.60;;;2.40;;
4821;SDS011;2425;47.794;13.068;2024-01-30T03:37:38;2.40;;;2.30;;
4821;SDS011;2425;47.794;13.068;2024-01-30T03:40:06;2.17;;;2.07;;
4821;SDS011;2425;47.794;13.068;2024-01-30T03:42:33;2.50;;;2.33;;
4821;SDS011;2425;47.794;13.068;2024-01-30T03:45:00;2.87;;;2.67;;
4821;SDS011;2425;47.794;13.068;2024-01-30T03:47:29;2.43;;;2.23;;
4821;SDS011;2425;47.794;13.068;2024-01-30T03:49:55;2.70;;;2.50;;
4821;SDS011;2425;47.794;13.068;2024-01-30T03:52:22;2.67;;;2.57;;
4821;SDS011;2425;47.794;13.068;2024-01-30T03:54:49;2.53;;;2.33;;
4821;SDS011;2425;47.794;13.068;2024-01-30T03:57:16;3.07;;;2.87;;
4821;SDS011;2425;47.794;13.068;2024-01-30T03:59:42;3.33;;;2.47;;
4821;SDS011;2425;47.794;13.068;2024-01-30T04:02:09;2.37;;;2.20;;
4821;SDS011;2425;47.794;13.068;2024-01-30T04:04:38;2.23;;;2.13;;
4821;SDS011;2425;47.794;13.068;2024-01-30T04:07:04;2.67;;;2.57;;
4821;SDS011;2425;47.794;13.068;2024-01-30T04:09:31;3.47;;;2.60;;
4821;SDS011;2425;47.794;13.068;2024-01-30T04:11:58;2.73;;;2.53;;
4821;SDS011;2425;47.794;13.068;2024-01-30T04:14:24;2.80;;;2.60;;
4821;SDS011;2425;47.794;13.068;2024-01-30T04:16:51;2.33;;;2.23;;
4821;SDS011;2425;47.794;13.068;2024-01-30T04:19:18;2.83;;;2.73;;
4821;SDS011;2425;47.794;13.068;2024-01-30T04:21:46;2.37;;;2.27;;
4821;SDS011;2425;47.794;13.068;2024-01-30T04:24:13;2.80;;;2.60;;
4821;SDS011;2425;47.794;13.068;2024-01-30T04:26:42;2.90;;;2.70;;
4821;SDS011;2425;47.794;13.068;2024-01-30T04:29:08;2.67;;;2.47;;
4821;SDS011;2425;47.794;13.068;2024-01-30T04:31:35;2.47;;;2.37;;
4821;SDS011;2425;47.794;13.068;2024-01-30T04:34:02;2.70;;;2.50;;
4821;SDS011;2425;47.794;13.068;2024-01-30T04:36:29;2.40;;;2.30;;
4821;SDS011;2425;47.794;13.068;2024-01-30T04:38:57;2.13;;;2.03;;
4821;SDS011;2425;47.794;13.068;2024-01-30T04:41:23;2.60;;;2.50;;
4821;SDS011;2425;47.794;13.068;2024-01-30T04:43:51;2.40;;;2.30;;
4821;SDS011;2425;47.794;13.068;2024-01-30T04:46:18;2.70;;;2.50;;
4821;SDS011;2425;47.794;13.068;2024-01-30T04:48:44;2.30;;;2.20;;
4821;SDS011;2425;47.794;13.068;2024-01-30T04:51:11;2.33;;;2.23;;
4821;SDS011;2425;47.794;13.068;2024-01-30T04:53:38;2.37;;;2.17;;
4821;SDS011;2425;47.794;13.068;2024-01-30T04:56:06;2.50;;;2.30;;
4821;SDS011;2425;47.794;13.068;2024-01-30T04:58:33;2.40;;;2.30;;
4821;SDS011;2425;47.794;13.068;2024-01-30T05:01:00;2.30;;;2.20;;
4821;SDS011;2425;47.794;13.068;2024-01-30T05:03:26;2.27;;;2.17;;
4821;SDS011;2425;47.794;13.068;2024-01-30T05:05:53;2.37;;;2.27;;
4821;SDS011;2425;47.794;13.068;2024-01-30T05:08:21;2.80;;;2.60;;
4821;SDS011;2425;47.794;13.068;2024-01-30T05:10:48;2.10;;;2.00;;
4821;SDS011;2425;47.794;13.068;2024-01-30T05:13:16;2.40;;;2.30;;
4821;SDS011;2425;47.794;13.068;2024-01-30T05:15:43;2.60;;;2.50;;
4821;SDS011;2425;47.794;13.068;2024-01-30T05:18:09;2.20;;;2.10;;
4821;SDS011;2425;47.794;13.068;2024-01-30T05:20:36;2.17;;;2.07;;
4821;SDS011;2425;47.794;13.068;2024-01-30T05:23:03;2.40;;;2.30;;
4821;SDS011;2425;47.794;13.068;2024-01-30T05:25:30;2.10;;;2.00;;
4821;SDS011;2425;47.794;13.068;2024-01-30T05:27:57;2.40;;;2.30;;
4821;SDS011;2425;47.794;13.068;2024-01-30T05:30:25;2.30;;;2.20;;
4821;SDS011;2425;47.794;13.068;2024-01-30T05:32:51;2.33;;;2.23;;
4821;SDS011;2425;47.794;13.068;2024-01-30T05:35:18;2.17;;;2.07;;
4821;SDS011;2425;47.794;13.068;2024-01-30T05:37:46;2.80;;;2.60;;
4821;SDS011;2425;47.794;13.068;2024-01-30T05:40:17;2.30;;;2.00;;
4821;SDS011;2425;47.794;13.068;2024-01-30T05:42:52;2.20;;;2.10;;
4821;SDS011;2425;47.794;13.068;2024-01-30T05:45:19;2.50;;;2.40;;
4821;SDS011;2425;47.794;13.068;2024-01-30T05:47:47;2.17;;;2.07;;
4821;SDS011;2425;47.794;13.068;2024-01-30T05:50:14;2.47;;;2.37;;
4821;SDS011;2425;47.794;13.068;2024-01-30T05:52:41;2.60;;;2.40;;
4821;SDS011;2425;47.794;13.068;2024-01-30T05:55:08;2.00;;;1.90;;
4821;SDS011;2425;47.794;13.068;2024-01-30T05:57:35;2.13;;;2.03;;
4821;SDS011;2425;47.794;13.068;2024-01-30T06:00:02;2.30;;;2.20;;
4821;SDS011;2425;47.794;13.068;2024-01-30T06:02:29;2.67;;;2.47;;
4821;SDS011;2425;47.794;13.068;2024-01-30T06:04:58;1.60;;;1.50;;
4821;SDS011;2425;47.794;13.068;2024-01-30T06:07:24;2.37;;;2.17;;
4821;SDS011;2425;47.794;13.068;2024-01-30T06:09:51;2.47;;;2.37;;
4821;SDS011;2425;47.794;13.068;2024-01-30T06:12:18;2.40;;;2.30;;
4821;SDS011;2425;47.794;13.068;2024-01-30T06:14:45;2.10;;;2.00;;
4821;SDS011;2425;47.794;13.068;2024-01-30T06:17:11;2.60;;;2.40;;
4821;SDS011;2425;47.794;13.068;2024-01-30T06:19:39;2.17;;;2.07;;
4821;SDS011;2425;47.794;13.068;2024-01-30T06:22:07;2.00;;;1.90;;
4821;SDS011;2425;47.794;13.068;2024-01-30T06:24:33;2.10;;;2.00;;
4821;SDS011;2425;47.794;13.068;2024-01-30T06:27:00;2.20;;;2.10;;
4821;SDS011;2425;47.794;13.068;2024-01-30T06:29:27;2.50;;;2.40;;
4821;SDS011;2425;47.794;13.068;2024-01-30T06:31:54;2.03;;;1.93;;
4821;SDS011;2425;47.794;13.068;2024-01-30T06:34:21;2.43;;;2.23;;
4821;SDS011;2425;47.794;13.068;2024-01-30T06:36:48;4.63;;;2.17;;
4821;SDS011;2425;47.794;13.068;2024-01-30T06:39:16;3.77;;;2.00;;
4821;SDS011;2425;47.794;13.068;2024-01-30T06:41:43;2.30;;;2.20;;
4821;SDS011;2425;47.794;13.068;2024-01-30T06:44:11;7.30;;;3.00;;
4821;SDS011;2425;47.794;13.068;2024-01-30T06:46:38;43.00;;;9.13;;
4821;SDS011;2425;47.794;13.068;2024-01-30T06:49:05;63.03;;;10.33;;
4821;SDS011;2425;47.794;13.068;2024-01-30T06:51:31;80.43;;;14.00;;
4821;SDS011;2425;47.794;13.068;2024-01-30T06:54:04;89.57;;;15.03;;
4821;SDS011;2425;47.794;13.068;2024-01-30T06:56:38;103.23;;;18.93;;
4821;SDS011;2425;47.794;13.068;2024-01-30T06:59:05;94.90;;;15.30;;
4821;SDS011;2425;47.794;13.068;2024-01-30T07:01:32;93.30;;;15.23;;
4821;SDS011;2425;47.794;13.068;2024-01-30T07:03:58;99.43;;;15.50;;
4821;SDS011;2425;47.794;13.068;2024-01-30T07:06:25;67.13;;;12.13;;
4821;SDS011;2425;47.794;13.068;2024-01-30T07:08:52;61.67;;;11.10;;
4821;SDS011;2425;47.794;13.068;2024-01-30T07:11:19;66.20;;;11.23;;
4821;SDS011;2425;47.794;13.068;2024-01-30T07:13:48;70.77;;;11.37;;
4821;SDS011;2425;47.794;13.068;2024-01-30T07:16:15;48.30;;;9.43;;
4821;SDS011;2425;47.794;13.068;2024-01-30T07:18:41;44.77;;;9.30;;
4821;SDS011;2425;47.794;13.068;2024-01-30T07:21:08;55.00;;;9.17;;
4821;SDS011;2425;47.794;13.068;2024-01-30T07:23:35;55.03;;;10.20;;
4821;SDS011;2425;47.794;13.068;2024-01-30T07:26:03;45.70;;;8.67;;
4821;SDS011;2425;47.794;13.068;2024-01-30T07:28:31;41.80;;;8.60;;
4821;SDS011;2425;47.794;13.068;2024-01-30T07:30:59;32.13;;;7.83;;
4821;SDS011;2425;47.794;13.068;2024-01-30T07:33:26;42.43;;;8.40;;
4821;SDS011;2425;47.794;13.068;2024-01-30T07:35:53;55.30;;;14.07;;
4821;SDS011;2425;47.794;13.068;2024-01-30T07:38:20;34.23;;;8.20;;
4821;SDS011;2425;47.794;13.068;2024-01-30T07:40:47;36.33;;;7.90;;
4821;SDS011;2425;47.794;13.068;2024-01-30T07:43:13;38.67;;;8.73;;
4821;SDS011;2425;47.794;13.068;2024-01-30T07:45:40;27.80;;;7.47;;
4821;SDS011;2425;47.794;13.068;2024-01-30T07:48:08;44.67;;;8.93;;
4821;SDS011;2425;47.794;13.068;2024-01-30T07:50:35;37.00;;;7.63;;
4821;SDS011;2425;47.794;13.068;2024-01-30T07:53:02;37.10;;;8.13;;
4821;SDS011;2425;47.794;13.068;2024-01-30T07:58:16;32.57;;;8.40;;
4821;SDS011;2425;47.794;13.068;2024-01-30T08:00:44;30.53;;;7.40;;
4821;SDS011;2425;47.794;13.068;2024-01-30T08:03:12;31.43;;;7.30;;
4821;SDS011;2425;47.794;13.068;2024-01-30T08:05:41;29.83;;;7.03;;
4821;SDS011;2425;47.794;13.068;2024-01-30T08:08:08;24.70;;;6.50;;
4821;SDS011;2425;47.794;13.068;2024-01-30T08:10:35;23.00;;;6.20;;
4821;SDS011;2425;47.794;13.068;2024-01-30T08:13:02;25.97;;;5.97;;
4821;SDS011;2425;47.794;13.068;2024-01-30T08:15:28;38.63;;;14.40;;
4821;SDS011;2425;47.794;13.068;2024-01-30T08:17:55;24.20;;;7.70;;
4821;SDS011;2425;47.794;13.068;2024-01-30T08:20:25;22.83;;;7.50;;
4821;SDS011;2425;47.794;13.068;2024-01-30T08:22:52;25.77;;;8.03;;
4821;SDS011;2425;47.794;13.068;2024-01-30T08:25:19;17.13;;;7.00;;
4821;SDS011;2425;47.794;13.068;2024-01-30T08:27:46;50.97;;;11.53;;
4821;SDS011;2425;47.794;13.068;2024-01-30T08:30:13;118.97;;;18.83;;
4821;SDS011;2425;47.794;13.068;2024-01-30T08:32:41;138.90;;;29.60;;
4821;SDS011;2425;47.794;13.068;2024-01-30T08:35:07;199.37;;;39.57;;
4821;SDS011;2425;47.794;13.068;2024-01-30T08:37:36;209.27;;;40.43;;
4821;SDS011;2425;47.794;13.068;2024-01-30T08:40:03;158.87;;;34.23;;
4821;SDS011;2425;47.794;13.068;2024-01-30T08:42:30;177.20;;;37.77;;
4821;SDS011;2425;47.794;13.068;2024-01-30T08:44:58;183.53;;;38.20;;
4821;SDS011;2425;47.794;13.068;2024-01-30T08:47:25;143.83;;;36.13;;
4821;SDS011;2425;47.794;13.068;2024-01-30T08:49:51;149.03;;;33.93;;
4821;SDS011;2425;47.794;13.068;2024-01-30T08:52:18;132.33;;;30.13;;
4821;SDS011;2425;47.794;13.068;2024-01-30T08:54:46;140.60;;;31.00;;
4821;SDS011;2425;47.794;13.068;2024-01-30T08:57:13;149.40;;;31.40;;
4821;SDS011;2425;47.794;13.068;2024-01-30T08:59:40;145.40;;;31.20;;
4821;SDS011;2425;47.794;13.068;2024-01-30T09:02:09;127.50;;;30.30;;
4821;SDS011;2425;47.794;13.068;2024-01-30T09:04:38;105.80;;;28.47;;
4821;SDS011;2425;47.794;13.068;2024-01-30T09:07:04;96.90;;;27.80;;
4821;SDS011;2425;47.794;13.068;2024-01-30T09:09:34;111.23;;;31.40;;
4821;SDS011;2425;47.794;13.068;2024-01-30T09:12:02;107.27;;;27.97;;
4821;SDS011;2425;47.794;13.068;2024-01-30T09:14:34;104.23;;;27.27;;
4821;SDS011;2425;47.794;13.068;2024-01-30T09:17:01;98.63;;;24.73;;
4821;SDS011;2425;47.794;13.068;2024-01-30T09:19:28;85.03;;;24.50;;
4821;SDS011;2425;47.794;13.068;2024-01-30T09:21:55;93.70;;;23.83;;
4821;SDS011;2425;47.794;13.068;2024-01-30T09:24:21;86.33;;;23.67;;
4821;SDS011;2425;47.794;13.068;2024-01-30T09:26:48;84.17;;;25.27;;
4821;SDS011;2425;47.794;13.068;2024-01-30T09:29:17;102.83;;;27.47;;
4821;SDS011;2425;47.794;13.068;2024-01-30T09:31:43;82.60;;;24.53;;
4821;SDS011;2425;47.794;13.068;2024-01-30T09:34:10;72.33;;;21.90;;
4821;SDS011;2425;47.794;13.068;2024-01-30T09:36:37;75.10;;;22.00;;
4821;SDS011;2425;47.794;13.068;2024-01-30T09:39:03;80.03;;;22.57;;
4821;SDS011;2425;47.794;13.068;2024-01-30T09:41:32;77.30;;;22.40;;
4821;SDS011;2425;47.794;13.068;2024-01-30T09:44:00;71.73;;;21.30;;
4821;SDS011;2425;47.794;13.068;2024-01-30T09:46:30;75.33;;;21.77;;
4821;SDS011;2425;47.794;13.068;2024-01-30T09:48:58;67.53;;;21.30;;
4821;SDS011;2425;47.794;13.068;2024-01-30T09:51:27;78.00;;;22.47;;
4821;SDS011;2425;47.794;13.068;2024-01-30T09:53:54;70.63;;;21.23;;
4821;SDS011;2425;47.794;13.068;2024-01-30T09:56:21;69.07;;;21.07;;
4821;SDS011;2425;47.794;13.068;2024-01-30T09:58:48;62.53;;;20.80;;
4821;SDS011;2425;47.794;13.068;2024-01-30T10:01:15;60.30;;;19.57;;
4821;SDS011;2425;47.794;13.068;2024-01-30T10:03:45;64.30;;;20.47;;
4821;SDS011;2425;47.794;13.068;2024-01-30T10:06:12;55.67;;;19.70;;
4821;SDS011;2425;47.794;13.068;2024-01-30T10:08:39;54.63;;;18.93;;
4821;SDS011;2425;47.794;13.068;2024-01-30T10:11:06;57.33;;;18.27;;
4821;SDS011;2425;47.794;13.068;2024-01-30T10:13:33;57.17;;;18.27;;
4821;SDS011;2425;47.794;13.068;2024-01-30T10:16:00;51.07;;;17.20;;
4821;SDS011;2425;47.794;13.068;2024-01-30T10:18:28;51.40;;;18.23;;
4821;SDS011;2425;47.794;13.068;2024-01-30T10:20:56;74.67;;;20.27;;
4821;SDS011;2425;47.794;13.068;2024-01-30T10:23:23;57.33;;;18.63;;
4821;SDS011;2425;47.794;13.068;2024-01-30T10:25:50;51.37;;;17.07;;
4821;SDS011;2425;47.794;13.068;2024-01-30T10:28:17;47.00;;;16.30;;
4821;SDS011;2425;47.794;13.068;2024-01-30T10:30:44;40.80;;;14.50;;
4821;SDS011;2425;47.794;13.068;2024-01-30T10:33:11;40.13;;;14.53;;
4821;SDS011;2425;47.794;13.068;2024-01-30T10:35:37;40.40;;;14.90;;
4821;SDS011;2425;47.794;13.068;2024-01-30T10:38:06;30.20;;;13.20;;
4821;SDS011;2425;47.794;13.068;2024-01-30T10:40:34;40.10;;;14.73;;
4821;SDS011;2425;47.794;13.068;2024-01-30T10:43:02;40.33;;;13.77;;
4821;SDS011;2425;47.794;13.068;2024-01-30T10:45:30;47.20;;;14.67;;
4821;SDS011;2425;47.794;13.068;2024-01-30T10:47:58;34.03;;;13.57;;
4821;SDS011;2425;47.794;13.068;2024-01-30T10:50:25;35.83;;;12.10;;
4821;SDS011;2425;47.794;13.068;2024-01-30T10:52:52;31.97;;;12.47;;
4821;SDS011;2425;47.794;13.068;2024-01-30T10:55:20;34.77;;;12.43;;
4821;SDS011;2425;47.794;13.068;2024-01-30T10:57:48;40.17;;;13.30;;
4821;SDS011;2425;47.794;13.068;2024-01-30T11:00:15;30.33;;;12.77;;
4821;SDS011;2425;47.794;13.068;2024-01-30T11:02:45;36.33;;;12.37;;
4821;SDS011;2425;47.794;13.068;2024-01-30T11:05:12;34.17;;;12.93;;
4821;SDS011;2425;47.794;13.068;2024-01-30T11:07:40;28.27;;;12.43;;
4821;SDS011;2425;47.794;13.068;2024-01-30T11:10:07;36.37;;;14.73;;
4821;SDS011;2425;47.794;13.068;2024-01-30T11:12:39;34.90;;;13.30;;
4821;SDS011;2425;47.794;13.068;2024-01-30T11:15:09;29.10;;;13.13;;
4821;SDS011;2425;47.794;13.068;2024-01-30T11:17:40;30.97;;;12.80;;
4821;SDS011;2425;47.794;13.068;2024-01-30T11:20:11;26.83;;;12.60;;
4821;SDS011;2425;47.794;13.068;2024-01-30T11:22:40;28.50;;;12.60;;
4821;SDS011;2425;47.794;13.068;2024-01-30T11:25:11;46.77;;;27.07;;
4821;SDS011;2425;47.794;13.068;2024-01-30T11:27:39;29.87;;;14.67;;
4821;SDS011;2425;47.794;13.068;2024-01-30T11:30:08;31.33;;;15.90;;
4821;SDS011;2425;47.794;13.068;2024-01-30T11:32:35;24.43;;;11.13;;
4821;SDS011;2425;47.794;13.068;2024-01-30T11:35:03;26.20;;;11.60;;
4821;SDS011;2425;47.794;13.068;2024-01-30T11:37:31;26.40;;;11.93;;
4821;SDS011;2425;47.794;13.068;2024-01-30T11:39:58;22.53;;;11.60;;
4821;SDS011;2425;47.794;13.068;2024-01-30T11:42:25;28.63;;;10.87;;
4821;SDS011;2425;47.794;13.068;2024-01-30T11:44:54;29.40;;;14.40;;
4821;SDS011;2425;47.794;13.068;2024-01-30T11:47:22;24.93;;;12.17;;
4821;SDS011;2425;47.794;13.068;2024-01-30T11:49:48;18.57;;;9.97;;
4821;SDS011;2425;47.794;13.068;2024-01-30T11:52:15;20.07;;;10.63;;
4821;SDS011;2425;47.794;13.068;2024-01-30T11:54:42;19.57;;;9.53;;
4821;SDS011;2425;47.794;13.068;2024-01-30T11:57:09;17.43;;;9.90;;
4821;SDS011;2425;47.794;13.068;2024-01-30T11:59:35;17.17;;;9.33;;
4821;SDS011;2425;47.794;13.068;2024-01-30T12:02:04;19.33;;;9.40;;
4821;SDS011;2425;47.794;13.068;2024-01-30T12:04:30;19.53;;;9.67;;
4821;SDS011;2425;47.794;13.068;2024-01-30T12:06:57;20.07;;;8.43;;
4821;SDS011;2425;47.794;13.068;2024-01-30T12:09:24;15.27;;;8.37;;
4821;SDS011;2425;47.794;13.068;2024-01-30T12:11:52;13.93;;;8.70;;
4821;SDS011;2425;47.794;13.068;2024-01-30T12:14:22;12.63;;;8.17;;
4821;SDS011;2425;47.794;13.068;2024-01-30T12:16:50;15.40;;;8.90;;
4821;SDS011;2425;47.794;13.068;2024-01-30T12:19:24;14.63;;;7.90;;
4821;SDS011;2425;47.794;13.068;2024-01-30T12:21:54;15.97;;;8.57;;
4821;SDS011;2425;47.794;13.068;2024-01-30T12:24:22;12.70;;;7.37;;
4821;SDS011;2425;47.794;13.068;2024-01-30T12:26:48;14.57;;;7.97;;
4821;SDS011;2425;47.794;13.068;2024-01-30T12:29:15;13.00;;;7.77;;
4821;SDS011;2425;47.794;13.068;2024-01-30T12:31:42;13.17;;;6.80;;
4821;SDS011;2425;47.794;13.068;2024-01-30T12:34:13;15.53;;;8.00;;
4821;SDS011;2425;47.794;13.068;2024-01-30T12:36:42;11.00;;;6.60;;
4821;SDS011;2425;47.794;13.068;2024-01-30T12:39:10;10.20;;;6.43;;
4821;SDS011;2425;47.794;13.068;2024-01-30T12:41:37;13.53;;;7.00;;
4821;SDS011;2425;47.794;13.068;2024-01-30T12:44:04;11.97;;;6.23;;
4821;SDS011;2425;47.794;13.068;2024-01-30T12:46:31;10.07;;;6.70;;
4821;SDS011;2425;47.794;13.068;2024-01-30T12:48:58;10.40;;;6.53;;
4821;SDS011;2425;47.794;13.068;2024-01-30T12:51:24;16.40;;;6.40;;
4821;SDS011;2425;47.794;13.068;2024-01-30T12:53:53;9.83;;;5.40;;
4821;SDS011;2425;47.794;13.068;2024-01-30T12:56:19;9.73;;;6.20;;
4821;SDS011;2425;47.794;13.068;2024-01-30T12:58:46;10.67;;;6.60;;
4821;SDS011;2425;47.794;13.068;2024-01-30T13:01:13;9.43;;;5.97;;
4821;SDS011;2425;47.794;13.068;2024-01-30T13:03:39;6.90;;;5.30;;
4821;SDS011;2425;47.794;13.068;2024-01-30T13:06:06;12.67;;;6.40;;
4821;SDS011;2425;47.794;13.068;2024-01-30T13:08:33;10.60;;;5.10;;
4821;SDS011;2425;47.794;13.068;2024-01-30T13:11:01;8.20;;;5.10;;
4821;SDS011;2425;47.794;13.068;2024-01-30T13:13:29;11.57;;;5.63;;
4821;SDS011;2425;47.794;13.068;2024-01-30T13:15:56;8.77;;;5.30;;
4821;SDS011;2425;47.794;13.068;2024-01-30T13:18:23;8.10;;;4.87;;
4821;SDS011;2425;47.794;13.068;2024-01-30T13:20:50;14.60;;;5.60;;
4821;SDS011;2425;47.794;13.068;2024-01-30T13:23:17;8.33;;;5.40;;
4821;SDS011;2425;47.794;13.068;2024-01-30T13:25:44;8.70;;;5.90;;
4821;SDS011;2425;47.794;13.068;2024-01-30T13:28:12;7.23;;;4.77;;
4821;SDS011;2425;47.794;13.068;2024-01-30T13:30:39;6.67;;;4.97;;
4821;SDS011;2425;47.794;13.068;2024-01-30T13:33:05;8.87;;;5.03;;
4821;SDS011;2425;47.794;13.068;2024-01-30T13:35:32;7.50;;;5.27;;
4821;SDS011;2425;47.794;13.068;2024-01-30T13:37:59;5.97;;;4.30;;
4821;SDS011;2425;47.794;13.068;2024-01-30T13:40:26;7.00;;;4.50;;
4821;SDS011;2425;47.794;13.068;2024-01-30T13:42:52;7.37;;;4.60;;
4821;SDS011;2425;47.794;13.068;2024-01-30T13:45:20;6.00;;;4.43;;
4821;SDS011;2425;47.794;13.068;2024-01-30T13:47:47;7.73;;;4.30;;
4821;SDS011;2425;47.794;13.068;2024-01-30T13:50:14;5.67;;;4.83;;
4821;SDS011;2425;47.794;13.068;2024-01-30T13:52:41;6.00;;;4.50;;
4821;SDS011;2425;47.794;13.068;2024-01-30T13:55:08;9.80;;;4.30;;
4821;SDS011;2425;47.794;13.068;2024-01-30T13:57:35;5.70;;;4.50;;
4821;SDS011;2425;47.794;13.068;2024-01-30T14:00:03;7.70;;;3.70;;
4821;SDS011;2425;47.794;13.068;2024-01-30T14:02:33;4.97;;;4.07;;
4821;SDS011;2425;47.794;13.068;2024-01-30T14:05:00;5.60;;;3.50;;
4821;SDS011;2425;47.794;13.068;2024-01-30T14:07:26;4.00;;;3.30;;
4821;SDS011;2425;47.794;13.068;2024-01-30T14:09:53;3.40;;;3.10;;
4821;SDS011;2425;47.794;13.068;2024-01-30T14:12:20;4.60;;;3.30;;
4821;SDS011;2425;47.794;13.068;2024-01-30T14:14:47;4.47;;;3.53;;
4821;SDS011;2425;47.794;13.068;2024-01-30T14:17:13;5.87;;;3.60;;
4821;SDS011;2425;47.794;13.068;2024-01-30T14:19:41;2.90;;;2.63;;
4821;SDS011;2425;47.794;13.068;2024-01-30T14:22:08;3.80;;;3.10;;
4821;SDS011;2425;47.794;13.068;2024-01-30T14:24:35;5.03;;;1.87;;
4821;SDS011;2425;47.794;13.068;2024-01-30T14:27:02;4.60;;;2.43;;
4821;SDS011;2425;47.794;13.068;2024-01-30T14:29:29;11.30;;;3.50;;
4821;SDS011;2425;47.794;13.068;2024-01-30T14:31:55;12.50;;;5.60;;
4821;SDS011;2425;47.794;13.068;2024-01-30T14:34:22;4.47;;;4.07;;
4821;SDS011;2425;47.794;13.068;2024-01-30T14:36:50;6.80;;;3.20;;
4821;SDS011;2425;47.794;13.068;2024-01-30T14:39:17;6.00;;;3.90;;
4821;SDS011;2425;47.794;13.068;2024-01-30T14:41:44;4.80;;;3.80;;
4821;SDS011;2425;47.794;13.068;2024-01-30T14:44:11;14.90;;;5.40;;
4821;SDS011;2425;47.794;13.068;2024-01-30T14:46:39;7.30;;;4.73;;
4821;SDS011;2425;47.794;13.068;2024-01-30T14:49:06;7.87;;;5.10;;
4821;SDS011;2425;47.794;13.068;2024-01-30T14:51:33;7.23;;;4.97;;
4821;SDS011;2425;47.794;13.068;2024-01-30T14:54:01;3.67;;;3.37;;